Time;durP1;ratioP1;P1;durP2;ratioP2;P2;SDS_P1;SDS_P2;PMS_P1;PMS_P2;Temp;Humidity;BMP_temperature;BMP_pressure;BME280_temperature;BME280_humidity;BME280_pressure;Samples;Min_cycle;Max_cycle;Signal;HPM_P1;HPM_P2
2021/03/08 00:02:03;;;;;;;38.98;21.05;;;;;;;0.12;67.89;100262.23;2110161;83;21898;-76
2021/03/08 00:05:07;;;;;;;33.45;19.52;;;;;;;0.14;67.92;100268.65;2113962;83;21144;-76
2021/03/08 00:08:09;;;;;;;34.13;19.85;;;;;;;0.10;68.56;100265.41;2109663;83;21135;-76
2021/03/08 00:11:10;;;;;;;34.03;19.73;;;;;;;0.04;69.60;100271.48;2113304;83;21156;-76
2021/03/08 00:14:12;;;;;;;36.30;19.10;;;;;;;-0.02;69.71;100277.45;2108188;83;21130;-76
2021/03/08 00:17:16;;;;;;;40.08;21.80;;;;;;;-0.09;70.18;100277.44;2108255;83;21628;-76
2021/03/08 00:20:21;;;;;;;36.98;19.42;;;;;;;-0.17;70.20;100278.41;2112500;83;21210;-76
2021/03/08 00:23:22;;;;;;;31.12;18.90;;;;;;;-0.24;70.41;100272.71;2112089;82;21607;-76
2021/03/08 00:26:24;;;;;;;32.90;19.20;;;;;;;-0.28;71.43;100279.53;2110661;83;21554;-76
2021/03/08 00:29:26;;;;;;;35.05;19.00;;;;;;;-0.33;71.09;100279.80;2112067;82;21185;-76
2021/03/08 00:32:27;;;;;;;33.80;18.35;;;;;;;-0.34;71.27;100282.48;2112717;83;21192;-76
2021/03/08 00:35:29;;;;;;;31.42;17.95;;;;;;;-0.36;71.47;100282.59;2108191;83;21240;-76
2021/03/08 00:38:31;;;;;;;30.80;17.80;;;;;;;-0.35;71.68;100276.91;2110770;82;21129;-76
2021/03/08 00:41:32;;;;;;;32.42;19.00;;;;;;;-0.31;71.57;100279.69;2112307;83;21129;-76
2021/03/08 00:44:34;;;;;;;31.57;17.17;;;;;;;-0.27;71.99;100277.28;2112045;83;21736;-76
2021/03/08 00:47:36;;;;;;;34.45;19.55;;;;;;;-0.27;71.89;100277.28;2115490;83;21211;-76
2021/03/08 00:50:38;;;;;;;27.58;17.07;;;;;;;-0.26;72.14;100273.27;2111880;82;21159;-76
2021/03/08 00:53:41;;;;;;;33.50;18.82;;;;;;;-0.26;72.66;100274.56;2112880;82;21182;-76
2021/03/08 00:56:43;;;;;;;29.15;17.00;;;;;;;-0.24;72.27;100271.88;2107081;83;22658;-76
2021/03/08 00:59:46;;;;;;;28.38;17.45;;;;;;;-0.25;72.36;100268.44;2115979;83;21655;-76
2021/03/08 01:02:48;;;;;;;29.07;18.12;;;;;;;-0.24;72.60;100267.97;2125279;83;21178;-76
2021/03/08 01:05:51;;;;;;;36.35;18.80;;;;;;;-0.24;72.81;100253.16;2117568;83;21675;-76
2021/03/08 01:08:54;;;;;;;26.68;16.75;;;;;;;-0.27;73.10;100262.47;2123578;83;21112;-76
2021/03/08 01:11:56;;;;;;;38.67;17.35;;;;;;;-0.30;73.43;100256.14;2115676;83;21560;-76
2021/03/08 01:14:57;;;;;;;28.17;18.07;;;;;;;-0.32;73.38;100261.08;2119089;83;21181;-76
2021/03/08 01:17:59;;;;;;;26.00;15.50;;;;;;;-0.34;73.45;100256.41;2121260;83;21206;-76
2021/03/08 01:21:00;;;;;;;27.10;16.12;;;;;;;-0.34;74.01;100253.80;2120594;82;21546;-76
2021/03/08 01:24:02;;;;;;;28.32;16.95;;;;;;;-0.32;73.68;100252.78;2123618;83;21870;-76
2021/03/08 01:27:05;;;;;;;32.23;17.87;;;;;;;-0.31;73.50;100251.88;2118010;83;21219;-76
2021/03/08 01:30:16;;;;;;;31.10;18.02;;;;;;;-0.31;73.67;100245.35;2125238;83;21223;-76
2021/03/08 01:33:18;;;;;;;26.77;16.55;;;;;;;-0.27;73.60;100248.60;2095821;83;21110;-76
2021/03/08 01:36:20;;;;;;;33.58;18.00;;;;;;;-0.25;73.79;100246.74;2117526;83;21133;-76
2021/03/08 01:39:22;;;;;;;31.90;17.37;;;;;;;-0.25;74.17;100231.93;2127736;83;21164;-76
2021/03/08 01:42:24;;;;;;;30.40;18.60;;;;;;;-0.25;73.94;100235.84;2120039;83;21119;-76
2021/03/08 01:45:25;;;;;;;30.55;16.97;;;;;;;-0.23;74.09;100237.03;2122906;83;21137;-76
2021/03/08 01:48:27;;;;;;;25.80;14.98;;;;;;;-0.25;74.27;100232.41;2119030;83;21172;-76
2021/03/08 01:51:29;;;;;;;24.63;13.85;;;;;;;-0.25;74.40;100233.23;2114592;83;21164;-76
2021/03/08 01:54:30;;;;;;;22.95;14.07;;;;;;;-0.28;74.60;100229.98;2125921;83;21103;-76
2021/03/08 01:57:32;;;;;;;22.13;13.93;;;;;;;-0.30;74.43;100227.93;2124149;82;21912;-76
2021/03/08 02:00:35;;;;;;;20.52;12.82;;;;;;;-0.27;74.63;100234.26;2124969;82;21198;-76
2021/03/08 02:03:37;;;;;;;23.10;13.18;;;;;;;-0.24;74.55;100234.06;2120499;82;21206;-76
2021/03/08 02:06:38;;;;;;;22.80;15.25;;;;;;;-0.21;74.76;100225.22;2130767;81;21093;-76
2021/03/08 02:09:40;;;;;;;25.35;14.03;;;;;;;-0.23;74.71;100229.20;2121897;81;21189;-76
2021/03/08 02:12:50;;;;;;;21.65;13.15;;;;;;;-0.21;74.93;100221.30;2125781;82;22462;-76
2021/03/08 02:16:06;;;;;;;23.20;13.95;;;;;;;-0.23;75.12;100227.91;2129092;82;21161;-76
2021/03/08 02:19:37;;;;;;;22.70;13.25;;;;;;;-0.22;75.00;100227.47;2129498;82;21709;-76
2021/03/08 02:23:23;;;;;;;20.40;14.43;;;;;;;-0.23;75.15;100225.30;2098325;82;21191;-74
2021/03/08 02:26:51;;;;;;;25.10;14.65;;;;;;;-0.22;75.39;100224.86;2123652;82;21190;-76
2021/03/08 02:30:44;;;;;;;25.40;14.25;;;;;;;-0.24;75.57;100219.25;2127392;82;21201;-76
2021/03/08 02:34:09;;;;;;;21.37;13.93;;;;;;;-0.25;75.61;100220.66;2126479;82;21200;-76
2021/03/08 02:37:20;;;;;;;25.10;15.05;;;;;;;-0.35;75.80;100222.16;2126833;82;21201;-77
2021/03/08 02:40:39;;;;;;;23.92;14.40;;;;;;;-0.39;75.90;100218.08;2125255;82;21210;-76
2021/03/08 02:43:44;;;;;;;22.17;13.78;;;;;;;-0.40;76.06;100222.42;2127761;81;21643;-76
2021/03/08 02:46:49;;;;;;;21.62;13.55;;;;;;;-0.38;76.13;100222.34;2123569;82;21214;-77
2021/03/08 02:49:55;;;;;;;22.05;14.90;;;;;;;-0.37;76.23;100224.01;2122556;82;21591;-76
2021/03/08 02:53:05;;;;;;;24.15;14.80;;;;;;;-0.38;76.55;100227.56;2127731;82;21180;-76
2021/03/08 02:56:13;;;;;;;22.93;14.20;;;;;;;-0.38;76.41;100222.34;2115071;82;21985;-76
2021/03/08 02:59:18;;;;;;;22.22;14.43;;;;;;;-0.39;76.52;100216.77;2113758;83;21125;-76
2021/03/08 03:02:22;;;;;;;23.27;14.50;;;;;;;-0.39;76.87;100219.38;2113424;83;21192;-76
2021/03/08 03:05:26;;;;;;;22.45;14.05;;;;;;;-0.41;76.81;100225.14;2107360;83;21133;-76
2021/03/08 03:08:30;;;;;;;20.65;14.10;;;;;;;-0.40;76.81;100227.64;2112041;83;21133;-76
2021/03/08 03:11:36;;;;;;;22.52;14.35;;;;;;;-0.35;76.83;100222.98;2109684;82;21217;-76
2021/03/08 03:14:39;;;;;;;22.45;14.78;;;;;;;-0.33;76.80;100231.56;2109990;83;21160;-76
2021/03/08 03:17:42;;;;;;;23.60;15.25;;;;;;;-0.31;76.99;100238.83;2109291;83;21178;-76
2021/03/08 03:20:47;;;;;;;26.02;15.35;;;;;;;-0.30;76.88;100235.28;2111281;82;21106;-76
2021/03/08 03:23:52;;;;;;;27.32;16.60;;;;;;;-0.28;76.84;100238.64;2092689;83;21626;-76
2021/03/08 03:26:54;;;;;;;26.85;15.63;;;;;;;-0.25;76.94;100245.44;2111185;82;21582;-76
2021/03/08 03:29:56;;;;;;;24.32;15.43;;;;;;;-0.25;77.36;100241.06;2110154;83;21107;-76
2021/03/08 03:32:59;;;;;;;28.77;16.10;;;;;;;-0.25;76.96;100246.74;2109035;83;21151;-77
2021/03/08 03:36:01;;;;;;;29.90;17.50;;;;;;;-0.20;77.18;100248.58;2111264;83;21158;-76
2021/03/08 03:39:07;;;;;;;28.92;17.25;;;;;;;-0.17;77.01;100244.50;2113583;83;21165;-76
2021/03/08 03:42:09;;;;;;;28.25;17.80;;;;;;;-0.14;77.20;100246.92;2106884;83;21182;-76
2021/03/08 03:45:13;;;;;;;26.75;16.27;;;;;;;-0.15;77.13;100250.44;2112941;83;21665;-77
2021/03/08 03:48:14;;;;;;;21.77;15.35;;;;;;;-0.16;77.13;100247.47;2108452;82;21125;-76
2021/03/08 03:51:16;;;;;;;24.90;15.40;;;;;;;-0.14;77.63;100239.09;2108645;83;21160;-76
2021/03/08 03:54:18;;;;;;;28.27;15.83;;;;;;;-0.13;77.76;100255.10;2112502;83;21632;-77
2021/03/08 03:57:22;;;;;;;24.47;15.50;;;;;;;-0.15;77.58;100256.95;2114754;83;21140;-76
2021/03/08 04:00:26;;;;;;;25.00;15.30;;;;;;;-0.13;77.79;100264.23;2122236;83;21177;-76
2021/03/08 04:03:36;;;;;;;20.75;14.25;;;;;;;-0.11;77.74;100267.59;2121317;83;21184;-76
2021/03/08 04:06:42;;;;;;;24.75;15.28;;;;;;;-0.10;78.08;100271.87;2119706;82;21129;-76
2021/03/08 04:09:48;;;;;;;26.15;16.23;;;;;;;-0.07;78.00;100272.98;2114964;83;21134;-76
2021/03/08 04:13:01;;;;;;;31.07;17.77;;;;;;;-0.04;77.99;100277.17;2124415;83;21143;-76
2021/03/08 04:16:07;;;;;;;26.20;16.65;;;;;;;-0.05;78.20;100286.77;2119862;83;21131;-76
2021/03/08 04:19:10;;;;;;;26.75;17.42;;;;;;;-0.04;78.05;100291.05;2114343;83;21500;-76
2021/03/08 04:22:13;;;;;;;22.98;15.13;;;;;;;-0.03;78.07;100283.61;2123413;83;21115;-76
2021/03/08 04:25:17;;;;;;;29.48;17.85;;;;;;;-0.04;78.15;100292.83;2117932;83;21164;-74
2021/03/08 04:28:21;;;;;;;23.35;15.58;;;;;;;-0.04;78.03;100293.66;2125760;82;21191;-73
2021/03/08 04:31:23;;;;;;;27.13;16.15;;;;;;;-0.02;78.22;100297.02;2113924;83;21161;-75
2021/03/08 04:34:25;;;;;;;26.90;15.10;;;;;;;-0.02;78.08;100290.49;2118458;83;21228;-75
2021/03/08 04:37:28;;;;;;;23.20;16.15;;;;;;;-0.04;78.19;100300.17;2123971;81;21170;-75
2021/03/08 04:40:30;;;;;;;25.70;16.32;;;;;;;-0.03;77.84;100303.61;2118481;83;21154;-75
2021/03/08 04:43:32;;;;;;;23.57;14.87;;;;;;;-0.02;78.12;100306.62;2125307;83;21146;-76
2021/03/08 04:46:34;;;;;;;20.62;12.80;;;;;;;-0.05;77.97;100313.33;2107729;83;21137;-76
2021/03/08 04:49:37;;;;;;;25.62;15.28;;;;;;;-0.08;78.04;100309.61;2122387;82;21184;-76
2021/03/08 04:52:39;;;;;;;27.27;16.30;;;;;;;-0.07;77.78;100321.23;2095680;83;21189;-76
2021/03/08 04:55:42;;;;;;;24.60;15.08;;;;;;;-0.07;77.69;100329.06;2115783;83;21245;-76
2021/03/08 04:58:44;;;;;;;27.93;14.33;;;;;;;-0.10;77.66;100324.03;2115610;82;21238;-76
2021/03/08 05:01:48;;;;;;;22.02;13.93;;;;;;;-0.08;77.63;100330.00;2121342;83;21126;-76
2021/03/08 05:04:51;;;;;;;21.17;14.33;;;;;;;-0.06;77.56;100325.55;2121817;83;21189;-77
2021/03/08 05:08:00;;;;;;;25.95;15.13;;;;;;;-0.07;77.49;100338.20;2118945;83;21128;-77
2021/03/08 05:11:04;;;;;;;24.15;14.83;;;;;;;-0.10;77.50;100334.47;2119339;83;21152;-76
2021/03/08 05:14:12;;;;;;;20.45;13.80;;;;;;;-0.08;77.41;100344.83;2119889;83;21254;-76
2021/03/08 05:17:17;;;;;;;19.75;12.78;;;;;;;-0.10;77.34;100341.47;2120688;83;21137;-76
2021/03/08 05:20:19;;;;;;;20.32;12.95;;;;;;;-0.16;77.42;100344.45;2125268;83;21196;-75
2021/03/08 05:23:22;;;;;;;18.17;12.35;;;;;;;-0.24;77.31;100350.95;2117310;83;21164;-75
2021/03/08 05:26:26;;;;;;;21.57;13.78;;;;;;;-0.25;77.20;100350.59;2122299;83;21588;-76
2021/03/08 05:29:28;;;;;;;22.52;14.23;;;;;;;-0.29;77.34;100353.45;2117435;83;21159;-76
2021/03/08 05:32:36;;;;;;;26.70;13.18;;;;;;;-0.35;77.13;100364.26;2117440;83;21155;-73
2021/03/08 05:35:39;;;;;;;19.12;12.65;;;;;;;-0.40;77.22;100373.65;2121871;83;21600;-72
2021/03/08 05:38:44;;;;;;;18.85;12.35;;;;;;;-0.43;77.15;100376.44;2099819;83;21166;-73
2021/03/08 05:42:08;;;;;;;20.20;13.00;;;;;;;-0.47;77.08;100379.70;2119438;83;21607;-73
2021/03/08 05:45:16;;;;;;;24.47;15.15;;;;;;;-0.48;77.01;100377.16;2119498;82;21107;-72
2021/03/08 05:49:05;;;;;;;29.07;14.83;;;;;;;-0.49;76.98;100384.16;2124695;83;21151;-71
2021/03/08 05:52:18;;;;;;;28.75;15.60;;;;;;;-0.51;77.02;100383.86;2121197;83;21200;-73
2021/03/08 05:56:01;;;;;;;23.57;14.50;;;;;;;-0.56;76.85;100382.02;2118857;82;21180;-73
2021/03/08 05:59:29;;;;;;;24.32;13.53;;;;;;;-0.58;77.25;100391.69;2122691;83;21162;-75
2021/03/08 06:03:08;;;;;;;18.98;12.73;;;;;;;-0.25;77.44;100392.31;2123059;83;21327;-73
2021/03/08 06:06:49;;;;;;;16.97;12.33;;;;;;;0.32;77.15;100392.80;2121838;83;22017;-73
2021/03/08 06:10:06;;;;;;;22.00;12.50;;;;;;;0.91;76.75;100391.76;2115970;83;21543;-73
2021/03/08 06:13:10;;;;;;;19.17;12.78;;;;;;;1.50;76.14;100400.09;2115892;83;21125;-80
2021/03/08 06:16:17;;;;;;;20.92;12.80;;;;;;;2.08;75.89;100403.98;2119587;82;21125;-77
2021/03/08 06:19:18;;;;;;;19.23;13.05;;;;;;;2.63;75.31;100410.63;2117595;83;21157;-77
2021/03/08 06:22:22;;;;;;;16.15;12.05;;;;;;;3.05;74.17;100413.74;2123563;83;21095;-77
2021/03/08 06:25:24;;;;;;;18.40;11.97;;;;;;;3.37;72.98;100417.09;2115771;83;21142;-80
2021/03/08 06:28:26;;;;;;;22.48;13.08;;;;;;;3.52;71.68;100421.67;2117283;83;21109;-75
2021/03/08 06:31:28;;;;;;;16.10;12.18;;;;;;;3.71;72.28;100423.30;2119951;83;21145;-75
2021/03/08 06:34:29;;;;;;;19.40;12.60;;;;;;;3.94;70.64;100431.22;2116927;83;21111;-72
2021/03/08 06:37:34;;;;;;;18.80;12.35;;;;;;;3.89;69.29;100443.41;2123410;83;21569;-75
2021/03/08 06:40:35;;;;;;;16.25;11.45;;;;;;;3.90;69.55;100451.63;2124587;83;21616;-74
2021/03/08 06:43:38;;;;;;;17.60;10.88;;;;;;;3.97;68.73;100451.53;2119725;83;21902;-74
2021/03/08 06:46:41;;;;;;;16.17;11.63;;;;;;;4.09;69.27;100462.06;2117290;83;21693;-75
2021/03/08 06:49:43;;;;;;;17.12;11.65;;;;;;;4.39;69.24;100464.97;2119473;82;21210;-75
2021/03/08 06:52:48;;;;;;;14.85;10.88;;;;;;;4.52;68.46;100462.70;2122208;83;21408;-75
2021/03/08 06:55:52;;;;;;;12.75;10.08;;;;;;;4.73;66.34;100471.55;2116215;83;21185;-75
2021/03/08 06:59:12;;;;;;;18.00;11.10;;;;;;;4.91;67.33;100477.13;2041172;84;21714;-75
2021/03/08 07:02:14;;;;;;;17.15;10.93;;;;;;;5.02;65.79;100475.80;2072130;84;21707;-75
2021/03/08 07:05:26;;;;;;;16.45;11.08;;;;;;;4.87;65.59;100489.70;2068484;84;21244;-75
2021/03/08 07:08:28;;;;;;;15.08;9.93;;;;;;;5.12;66.72;100499.56;2068256;84;21482;-75
2021/03/08 07:11:30;;;;;;;15.78;9.78;;;;;;;5.40;64.53;100492.44;2070579;84;21125;-76
2021/03/08 07:14:32;;;;;;;16.27;9.25;;;;;;;5.42;63.69;100498.08;2070015;84;21117;-77
2021/03/08 07:17:38;;;;;;;13.83;8.85;;;;;;;5.22;62.40;100500.52;2067009;84;21204;-76
2021/03/08 07:20:40;;;;;;;18.25;9.63;;;;;;;5.07;64.70;100513.59;2071449;84;21501;-77
2021/03/08 07:23:43;;;;;;;24.15;9.48;;;;;;;5.20;63.30;100514.26;2046199;84;21117;-76
2021/03/08 07:26:56;;;;;;;14.38;9.65;;;;;;;5.27;63.09;100510.68;2067468;84;21259;-77
2021/03/08 07:30:09;;;;;;;13.88;8.48;;;;;;;5.39;64.31;100518.41;2066807;84;21164;-76
2021/03/08 07:33:12;;;;;;;18.12;9.80;;;;;;;5.42;64.13;100516.02;2073527;84;21201;-76
2021/03/08 07:36:15;;;;;;;16.45;10.18;;;;;;;5.51;64.44;100521.84;2068492;84;22046;-77
2021/03/08 07:39:19;;;;;;;13.20;8.25;;;;;;;5.65;63.88;100518.58;2065891;84;21719;-74
2021/03/08 07:42:21;;;;;;;14.20;8.43;;;;;;;5.36;63.13;100523.09;2072957;84;21228;-77
2021/03/08 07:45:45;;;;;;;11.48;7.67;;;;;;;5.07;63.04;100533.31;2063749;84;21604;-76
2021/03/08 07:48:46;;;;;;;15.38;7.62;;;;;;;4.46;62.47;100535.79;2067676;84;22057;-77
2021/03/08 07:52:06;;;;;;;13.88;8.65;;;;;;;3.85;63.25;100540.87;2066164;84;21167;-75
2021/03/08 07:55:09;;;;;;;15.35;8.73;;;;;;;3.63;63.89;100549.47;2073535;84;22506;-74
2021/03/08 07:58:11;;;;;;;16.40;9.00;;;;;;;3.37;64.39;100556.13;2078470;83;21238;-77
2021/03/08 08:01:23;;;;;;;24.65;10.72;;;;;;;3.23;64.04;100557.59;2071095;84;21128;-77
2021/03/08 08:04:25;;;;;;;16.02;8.88;;;;;;;2.66;64.45;100566.78;2070775;84;21171;-77
2021/03/08 08:07:32;;;;;;;16.80;9.05;;;;;;;2.45;65.00;100561.23;2073620;84;21145;-75
2021/03/08 08:10:35;;;;;;;14.75;9.43;;;;;;;2.09;65.68;100564.06;2072395;84;21534;-76
2021/03/08 08:14:01;;;;;;;18.48;9.95;;;;;;;2.10;65.90;100563.11;2072910;84;21230;-76
2021/03/08 08:17:04;;;;;;;16.85;9.95;;;;;;;2.31;65.98;100571.77;2074414;84;21135;-76
2021/03/08 08:20:10;;;;;;;14.95;8.48;;;;;;;2.30;65.83;100576.66;2073121;84;21188;-73
2021/03/08 08:23:14;;;;;;;21.55;9.98;;;;;;;2.57;66.32;100587.91;2073154;84;21180;-75
2021/03/08 08:26:18;;;;;;;14.95;8.13;;;;;;;2.44;65.37;100588.36;2070660;84;22655;-73
2021/03/08 08:29:25;;;;;;;17.07;8.63;;;;;;;2.21;65.96;100586.80;2077133;84;21566;-75
2021/03/08 08:32:50;;;;;;;18.87;7.37;;;;;;;2.16;65.83;100593.28;2072911;84;21168;-75
2021/03/08 08:36:09;;;;;;;14.95;7.28;;;;;;;2.13;65.63;100593.01;2076239;84;21149;-73
2021/03/08 08:39:13;;;;;;;10.08;6.42;;;;;;;2.15;65.74;100595.06;2071211;84;21173;-75
2021/03/08 08:42:27;;;;;;;12.88;6.22;;;;;;;1.97;65.14;100593.64;2073236;84;21200;-75
2021/03/08 08:45:32;;;;;;;13.48;7.50;;;;;;;1.99;65.60;100595.69;2073415;84;21204;-75
2021/03/08 08:48:34;;;;;;;14.18;7.50;;;;;;;2.41;66.63;100597.25;2069374;84;21199;-74
2021/03/08 08:51:54;;;;;;;16.65;7.15;;;;;;;2.46;65.30;100596.95;2073295;84;21153;-74
2021/03/08 08:54:56;;;;;;;12.68;6.92;;;;;;;2.33;65.53;100594.78;2074705;84;21594;-74
2021/03/08 08:58:24;;;;;;;11.18;5.78;;;;;;;2.57;65.83;100598.38;2100809;83;21213;-74
2021/03/08 09:01:27;;;;;;;13.05;7.60;;;;;;;2.84;63.80;100596.13;2121232;83;21209;-74
2021/03/08 09:04:35;;;;;;;12.68;6.92;;;;;;;2.95;64.91;100600.16;2117715;83;21194;-74
2021/03/08 09:07:36;;;;;;;14.70;7.00;;;;;;;2.92;64.49;100609.06;2118295;83;22483;-74
2021/03/08 09:10:38;;;;;;;10.23;5.60;;;;;;;3.49;64.78;100600.31;2122668;83;21201;-74
2021/03/08 09:13:52;;;;;;;9.50;5.45;;;;;;;4.20;64.44;100606.55;2114644;81;21618;-74
2021/03/08 09:17:31;;;;;;;11.10;6.72;;;;;;;4.63;62.53;100603.32;2029054;86;21180;-74
2021/03/08 09:20:33;;;;;;;9.00;5.75;;;;;;;4.65;62.17;100600.11;2121555;83;21151;-74
2021/03/08 09:23:35;;;;;;;9.63;5.62;;;;;;;4.38;61.26;100598.59;2123619;83;21142;-75
2021/03/08 09:26:41;;;;;;;8.53;4.58;;;;;;;4.10;61.25;100606.86;2122150;83;21125;-73
2021/03/08 09:29:42;;;;;;;9.03;5.25;;;;;;;3.86;61.15;100609.03;2122224;83;21162;-74
2021/03/08 09:32:58;;;;;;;9.28;5.42;;;;;;;3.74;61.04;100605.95;2119266;83;21199;-74
2021/03/08 09:36:02;;;;;;;7.85;4.70;;;;;;;3.50;59.86;100613.34;2119686;83;21083;-74
2021/03/08 09:39:05;;;;;;;8.80;4.33;;;;;;;4.01;59.46;100607.89;2114553;82;21126;-73
2021/03/08 09:42:08;;;;;;;11.03;4.50;;;;;;;4.65;60.80;100606.20;2125285;83;21144;-74
2021/03/08 09:45:28;;;;;;;7.55;4.72;;;;;;;5.13;58.87;100617.00;2096150;83;21196;-74
2021/03/08 09:48:31;;;;;;;9.28;4.53;;;;;;;5.26;58.71;100621.64;2118997;83;21181;-74
2021/03/08 09:51:35;;;;;;;6.65;4.95;;;;;;;4.92;57.52;100619.00;2125031;82;21177;-74
2021/03/08 09:54:47;;;;;;;8.90;5.62;;;;;;;4.89;58.38;100620.55;2090839;83;21097;-74
2021/03/08 09:57:51;;;;;;;9.13;5.00;;;;;;;5.01;56.97;100623.20;2115090;83;21143;-74
2021/03/08 10:00:54;;;;;;;4.20;2.60;;;;;;;4.76;55.73;100625.09;2107027;82;21155;-74
2021/03/08 10:03:55;;;;;;;6.20;3.12;;;;;;;4.38;55.02;100636.69;2112288;83;21123;-74
2021/03/08 10:07:06;;;;;;;7.90;4.50;;;;;;;3.86;54.25;100630.03;2110619;83;21152;-74
2021/03/08 10:10:15;;;;;;;8.90;3.72;;;;;;;3.64;56.72;100633.83;2109199;82;21183;-74
2021/03/08 10:13:21;;;;;;;7.28;4.47;;;;;;;4.33;57.46;100632.25;2107042;83;21444;-74
2021/03/08 10:16:26;;;;;;;9.35;5.22;;;;;;;5.03;56.59;100635.27;2110018;82;21524;-74
2021/03/08 10:19:28;;;;;;;6.35;4.08;;;;;;;5.44;56.02;100635.66;2104876;83;21578;-74
2021/03/08 10:22:39;;;;;;;7.55;4.22;;;;;;;5.92;53.91;100628.25;2108651;83;21180;-75
2021/03/08 10:25:42;;;;;;;6.85;3.87;;;;;;;5.73;53.36;100632.02;2110464;83;21534;-74
2021/03/08 10:28:52;;;;;;;9.10;5.15;;;;;;;5.22;52.36;100641.27;2068767;83;21117;-74
2021/03/08 10:31:55;;;;;;;8.48;4.62;;;;;;;4.75;53.86;100640.49;2105867;82;21580;-74
2021/03/08 10:34:57;;;;;;;9.33;5.45;;;;;;;4.53;54.83;100646.53;2113101;83;21193;-73
2021/03/08 10:38:00;;;;;;;10.08;5.33;;;;;;;4.61;55.17;100639.39;2110683;83;21145;-73
2021/03/08 10:41:06;;;;;;;8.20;5.05;;;;;;;4.96;54.23;100639.83;2106690;83;21351;-77
2021/03/08 10:44:09;;;;;;;6.53;3.98;;;;;;;5.22;53.26;100642.59;2107209;83;21229;-73
2021/03/08 10:47:14;;;;;;;9.73;5.62;;;;;;;5.28;50.60;100646.05;2112694;82;21236;-75
2021/03/08 10:50:16;;;;;;;7.90;4.15;;;;;;;5.10;52.71;100652.27;2111020;83;21198;-74
2021/03/08 10:53:20;;;;;;;6.92;3.60;;;;;;;4.76;51.50;100648.76;2092000;83;21328;-74
2021/03/08 10:56:24;;;;;;;6.78;3.92;;;;;;;4.37;51.29;100657.36;2109972;83;21168;-74
2021/03/08 10:59:29;;;;;;;8.95;4.35;;;;;;;4.12;51.95;100648.30;2116932;82;21955;-74
2021/03/08 11:02:35;;;;;;;6.17;4.12;;;;;;;4.19;51.49;100652.97;2119103;82;21176;-75
2021/03/08 11:05:38;;;;;;;7.35;3.42;;;;;;;4.61;51.99;100659.10;2112809;82;21134;-74
2021/03/08 11:08:43;;;;;;;9.08;3.77;;;;;;;5.06;51.33;100660.51;2117068;82;21192;-74
2021/03/08 11:11:47;;;;;;;7.40;3.83;;;;;;;5.43;50.73;100651.89;2113850;82;22339;-74
2021/03/08 11:14:53;;;;;;;7.05;3.60;;;;;;;5.62;51.19;100652.12;2119580;82;21326;-74
2021/03/08 11:17:55;;;;;;;6.95;3.55;;;;;;;5.93;50.33;100647.52;2117083;82;21114;-73
2021/03/08 11:21:26;;;;;;;6.03;3.52;;;;;;;5.79;48.58;100650.78;2119162;82;21348;-74
2021/03/08 11:24:31;;;;;;;7.37;3.33;;;;;;;5.33;47.92;100655.74;2117313;82;21201;-75
2021/03/08 11:27:31;;;;;;;6.75;3.30;;;;;;;4.89;47.94;100654.73;2120845;82;21158;-75
2021/03/08 11:30:34;;;;;;;5.10;2.95;;;;;;;4.62;48.34;100646.34;2120204;82;21182;-74
2021/03/08 11:33:38;;;;;;;7.55;3.75;;;;;;;4.25;46.92;100652.99;2116196;82;21150;-75
2021/03/08 11:36:41;;;;;;;7.05;3.45;;;;;;;4.00;46.43;100652.66;2119453;82;21126;-75
2021/03/08 11:39:46;;;;;;;5.62;2.90;;;;;;;4.02;46.01;100650.26;2117505;82;21534;-75
2021/03/08 11:42:48;;;;;;;4.83;3.33;;;;;;;4.18;45.23;100647.84;2118992;82;21158;-75
2021/03/08 11:45:52;;;;;;;7.25;3.47;;;;;;;4.58;46.87;100656.22;2119193;82;21185;-74
2021/03/08 11:49:03;;;;;;;5.80;2.80;;;;;;;5.08;46.97;100658.61;2121109;82;21130;-74
2021/03/08 11:52:06;;;;;;;6.30;3.33;;;;;;;5.20;45.24;100657.64;2117582;82;21071;-74
2021/03/08 11:55:10;;;;;;;6.85;3.85;;;;;;;4.96;45.19;100656.92;2116947;82;21133;-75
2021/03/08 11:58:12;;;;;;;5.62;3.25;;;;;;;4.68;45.90;100656.39;2115581;82;21142;-74
2021/03/08 12:01:15;;;;;;;7.37;3.05;;;;;;;4.40;45.10;100657.13;2111371;83;21138;-74
2021/03/08 12:04:18;;;;;;;3.65;2.25;;;;;;;4.39;46.37;100657.23;2114577;83;21186;-75
2021/03/08 12:07:21;;;;;;;5.17;2.70;;;;;;;4.63;42.15;100651.95;2096878;83;21475;-74
2021/03/08 12:10:24;;;;;;;5.83;2.47;;;;;;;4.57;43.90;100655.88;2110902;82;21230;-75
2021/03/08 12:13:25;;;;;;;3.37;2.37;;;;;;;4.75;45.04;100647.06;2110738;83;21193;-75
2021/03/08 12:16:27;;;;;;;3.42;2.30;;;;;;;5.24;44.82;100651.20;2106551;83;21169;-76
2021/03/08 12:19:29;;;;;;;4.05;2.50;;;;;;;5.43;43.34;100644.00;2110522;83;21136;-76
2021/03/08 12:22:30;;;;;;;4.45;2.50;;;;;;;5.27;42.56;100648.33;2110789;82;21156;-76
2021/03/08 12:25:32;;;;;;;3.87;2.40;;;;;;;4.94;42.64;100651.77;2104274;83;21058;-75
2021/03/08 12:28:34;;;;;;;5.40;2.12;;;;;;;4.77;41.58;100646.97;2111919;82;21093;-77
2021/03/08 12:31:35;;;;;;;3.95;2.20;;;;;;;4.92;40.48;100646.61;2111669;83;21110;-77
2021/03/08 12:34:37;;;;;;;3.67;2.65;;;;;;;5.19;42.52;100640.20;2110159;83;21176;-76
2021/03/08 12:37:38;;;;;;;6.05;2.80;;;;;;;5.50;42.90;100638.62;2107098;82;21202;-76
2021/03/08 12:40:40;;;;;;;3.55;2.30;;;;;;;5.74;42.65;100638.94;2111471;83;21674;-76
2021/03/08 12:43:42;;;;;;;4.50;2.62;;;;;;;5.88;42.29;100639.98;2109330;82;21221;-76
2021/03/08 12:46:43;;;;;;;3.15;2.10;;;;;;;5.93;40.92;100640.94;2107934;83;21094;-76
2021/03/08 12:49:45;;;;;;;3.25;2.12;;;;;;;5.66;41.21;100640.03;2108895;82;21549;-77
2021/03/08 12:52:47;;;;;;;3.87;2.33;;;;;;;5.37;41.81;100642.69;2115681;82;21510;-76
2021/03/08 12:55:49;;;;;;;4.42;2.55;;;;;;;5.26;43.27;100642.69;2109396;82;21220;-78
2021/03/08 12:58:50;;;;;;;5.20;3.00;;;;;;;5.68;40.83;100637.63;2114138;83;21203;-74
2021/03/08 13:01:52;;;;;;;5.55;2.85;;;;;;;5.83;41.91;100635.59;2117859;83;21599;-85
2021/03/08 13:04:53;;;;;;;5.15;2.47;;;;;;;6.01;41.40;100635.44;2113886;83;21202;-75
2021/03/08 13:07:55;;;;;;;4.47;3.02;;;;;;;6.00;40.91;100635.09;2113940;83;21126;-75
2021/03/08 13:10:56;;;;;;;7.62;3.00;;;;;;;5.87;41.22;100644.07;2116832;83;21181;-75
2021/03/08 13:13:59;;;;;;;5.60;3.58;;;;;;;5.55;41.30;100650.95;2112716;82;21233;-77
2021/03/08 13:17:00;;;;;;;7.05;3.30;;;;;;;5.27;41.50;100659.34;2113207;83;21111;-73
2021/03/08 13:20:06;;;;;;;5.87;3.40;;;;;;;5.02;41.48;100659.08;2115830;82;21143;-81
2021/03/08 13:23:07;;;;;;;6.55;3.65;;;;;;;4.83;42.06;100663.09;2085344;83;22215;-78
2021/03/08 13:26:09;;;;;;;9.13;4.45;;;;;;;4.67;40.96;100654.69;2112134;82;21197;-78
2021/03/08 13:29:11;;;;;;;7.78;4.22;;;;;;;4.53;42.10;100662.78;2110173;82;21147;-78
2021/03/08 13:32:13;;;;;;;6.20;4.47;;;;;;;4.29;41.91;100663.66;2108303;82;21181;-79
2021/03/08 13:35:14;;;;;;;7.40;4.03;;;;;;;4.16;41.93;100660.24;2110087;83;21214;-78
2021/03/08 13:38:16;;;;;;;7.83;4.37;;;;;;;4.03;42.16;100666.88;2109212;82;21123;-81
2021/03/08 13:41:17;;;;;;;7.42;4.37;;;;;;;3.93;42.76;100666.69;2109159;83;21111;-78
2021/03/08 13:44:21;;;;;;;8.13;3.62;;;;;;;3.87;41.56;100666.30;2110577;82;21626;-71
2021/03/08 13:47:23;;;;;;;8.63;3.72;;;;;;;3.75;41.68;100669.34;2110712;82;21150;-73
2021/03/08 13:50:24;;;;;;;7.78;4.47;;;;;;;3.66;42.37;100666.03;2110413;83;21100;-73
2021/03/08 13:53:26;;;;;;;6.87;3.58;;;;;;;3.62;42.87;100669.84;2089548;83;21080;-74
2021/03/08 13:56:27;;;;;;;6.40;3.75;;;;;;;3.55;42.39;100673.38;2110527;83;21210;-74
2021/03/08 13:59:29;;;;;;;8.53;4.37;;;;;;;3.47;42.96;100667.83;2113821;82;22596;-75
2021/03/08 14:02:30;;;;;;;9.00;4.03;;;;;;;3.39;42.19;100676.22;2112633;82;21586;-74
2021/03/08 14:05:32;;;;;;;7.67;4.65;;;;;;;3.30;43.00;100676.88;2112617;83;21198;-73
2021/03/08 14:08:36;;;;;;;8.00;3.47;;;;;;;3.30;43.49;100674.25;2110702;83;21218;-73
2021/03/08 14:11:38;;;;;;;7.25;3.92;;;;;;;3.31;43.32;100670.67;2114270;83;22062;-74
2021/03/08 14:14:41;;;;;;;6.60;4.03;;;;;;;3.26;43.70;100670.14;2113083;83;21237;-73
2021/03/08 14:17:43;;;;;;;6.72;3.65;;;;;;;3.20;43.95;100667.47;2113036;83;21210;-74
2021/03/08 14:20:45;;;;;;;6.53;3.75;;;;;;;3.25;44.34;100680.28;2113384;82;21165;-73